createdAt,value
2024-02-14T00:00:58.282Z,8.47
2024-02-14T00:03:28.248Z,7.43
2024-02-14T00:06:00.707Z,10.03
2024-02-14T00:08:31.182Z,6.07
2024-02-14T00:11:05.855Z,7.13
2024-02-14T00:13:42.237Z,7.40
2024-02-14T00:16:18.768Z,7.43
2024-02-14T00:18:56.588Z,7.03
2024-02-14T00:21:29.085Z,9.07
2024-02-14T00:24:07.636Z,6.90
2024-02-14T00:26:41.054Z,9.40
2024-02-14T00:29:20.320Z,8.53
2024-02-14T00:32:03.337Z,6.30
2024-02-14T00:34:36.161Z,7.10
2024-02-14T00:37:15.014Z,7.70
2024-02-14T00:40:02.368Z,6.90
2024-02-14T00:42:33.788Z,9.37
2024-02-14T00:45:04.496Z,9.43
2024-02-14T00:47:37.262Z,7.77
2024-02-14T00:50:16.301Z,8.73
2024-02-14T00:52:49.346Z,8.30
2024-02-14T00:55:21.639Z,8.57
2024-02-14T00:57:52.226Z,7.37
2024-02-14T01:00:25.052Z,6.90
2024-02-14T01:03:01.104Z,8.20
2024-02-14T01:05:36.416Z,7.17
2024-02-14T01:08:12.971Z,7.90
2024-02-14T01:10:46.314Z,6.97
2024-02-14T01:13:22.416Z,8.50
2024-02-14T01:16:05.002Z,7.13
2024-02-14T01:18:40.081Z,7.30
2024-02-14T01:21:15.241Z,6.03
2024-02-14T01:23:54.163Z,6.53
2024-02-14T01:26:29.332Z,6.60
2024-02-14T01:28:59.272Z,6.90
2024-02-14T01:31:29.243Z,6.23
2024-02-14T01:34:05.438Z,6.57
2024-02-14T01:36:41.283Z,7.63
2024-02-14T01:39:17.796Z,7.47
2024-02-14T01:41:52.167Z,7.77
2024-02-14T01:44:26.546Z,6.80
2024-02-14T01:46:59.283Z,8.13
2024-02-14T01:49:32.762Z,7.40
2024-02-14T01:52:28.006Z,7.17
2024-02-14T01:54:59.169Z,5.77
2024-02-14T01:57:30.192Z,5.90
2024-02-14T02:00:01.643Z,5.77
2024-02-14T02:02:35.340Z,5.57
2024-02-14T02:05:13.049Z,5.93
2024-02-14T02:07:45.659Z,5.70
2024-02-14T02:10:18.074Z,5.10
2024-02-14T02:12:55.107Z,5.97
2024-02-14T02:15:35.265Z,5.37
2024-02-14T02:18:16.753Z,5.17
2024-02-14T02:20:50.807Z,5.10
2024-02-14T02:23:23.470Z,5.63
2024-02-14T02:26:02.844Z,4.93
2024-02-14T02:28:35.157Z,5.20
2024-02-14T02:31:05.126Z,5.00
2024-02-14T02:33:43.320Z,5.53
2024-02-14T02:36:16.404Z,4.53
2024-02-14T02:38:51.234Z,5.20
2024-02-14T02:41:24.178Z,5.53
2024-02-14T02:44:02.286Z,5.27
2024-02-14T02:46:47.389Z,5.13
2024-02-14T02:49:24.195Z,4.97
2024-02-14T02:51:54.118Z,5.43
2024-02-14T02:54:28.350Z,5.53
2024-02-14T02:57:04.766Z,4.77
2024-02-14T02:59:44.647Z,4.67
2024-02-14T03:02:17.750Z,5.17
2024-02-14T03:04:53.523Z,4.50
2024-02-14T03:07:24.932Z,5.40
2024-02-14T03:09:57.463Z,5.17
2024-02-14T03:12:31.922Z,5.20
2024-02-14T03:15:03.301Z,4.93
2024-02-14T03:17:45.827Z,5.20
2024-02-14T03:20:19.579Z,5.87
2024-02-14T03:23:00.891Z,4.37
2024-02-14T03:25:36.393Z,4.77
2024-02-14T03:28:09.510Z,5.13
2024-02-14T03:30:51.679Z,4.83
2024-02-14T03:33:24.883Z,5.30
2024-02-14T03:35:54.882Z,4.97
2024-02-14T03:38:33.350Z,5.53
2024-02-14T03:41:12.116Z,5.33
2024-02-14T03:43:56.955Z,5.00
2024-02-14T03:46:31.559Z,4.90
2024-02-14T03:49:05.406Z,5.50
2024-02-14T03:51:38.914Z,5.27
2024-02-14T03:54:09.099Z,4.30
2024-02-14T03:56:51.142Z,5.60
2024-02-14T03:59:26.866Z,4.67
2024-02-14T04:02:01.009Z,5.90
2024-02-14T04:04:32.189Z,6.03
2024-02-14T04:07:04.345Z,5.90
2024-02-14T04:09:39.118Z,7.00
2024-02-14T04:12:15.294Z,6.27
2024-02-14T04:14:45.238Z,6.10
2024-02-14T04:17:23.574Z,8.50
2024-02-14T04:19:53.603Z,6.73
2024-02-14T04:22:29.000Z,6.83
2024-02-14T04:25:03.089Z,7.00
2024-02-14T04:27:35.599Z,6.87
2024-02-14T04:30:09.671Z,7.10
2024-02-14T04:32:39.658Z,7.60
2024-02-14T04:35:10.218Z,6.83
2024-02-14T04:37:44.534Z,6.03
2024-02-14T04:40:30.105Z,5.80
2024-02-14T04:43:05.569Z,6.63
2024-02-14T04:45:45.484Z,6.30
2024-02-14T04:48:15.512Z,6.60
2024-02-14T04:50:46.888Z,6.03
2024-02-14T04:53:22.697Z,7.00
2024-02-14T04:55:57.853Z,6.73
2024-02-14T04:58:30.569Z,5.10
2024-02-14T05:01:00.608Z,5.70
2024-02-14T05:03:39.936Z,5.97
2024-02-14T05:06:14.227Z,6.73
2024-02-14T05:08:45.679Z,5.53
2024-02-14T05:11:17.499Z,5.63
2024-02-14T05:13:53.981Z,5.40
2024-02-14T05:16:29.328Z,6.23
2024-02-14T05:19:04.989Z,5.33
2024-02-14T05:21:48.788Z,7.20
2024-02-14T05:24:20.461Z,6.63
2024-02-14T05:26:58.393Z,8.20
2024-02-14T05:29:36.694Z,7.20
2024-02-14T05:32:10.724Z,7.63
2024-02-14T05:34:41.792Z,10.50
2024-02-14T05:37:15.150Z,9.00
2024-02-14T05:40:06.668Z,10.40
2024-02-14T05:42:37.623Z,11.50
2024-02-14T05:45:14.029Z,10.90
2024-02-14T05:47:46.753Z,10.60
2024-02-14T05:50:18.917Z,11.00
2024-02-14T05:52:51.988Z,12.07
2024-02-14T05:55:24.175Z,8.53
2024-02-14T05:57:56.792Z,10.30
2024-02-14T06:00:29.811Z,9.97
2024-02-14T06:03:01.278Z,10.20
2024-02-14T06:05:31.561Z,9.60
2024-02-14T06:08:08.380Z,9.60
2024-02-14T06:10:40.317Z,10.50
2024-02-14T06:13:23.101Z,7.13
2024-02-14T06:15:58.809Z,9.83
2024-02-14T06:18:34.535Z,6.80
2024-02-14T06:21:08.723Z,6.63
2024-02-14T06:23:41.436Z,8.60
2024-02-14T06:26:11.514Z,6.97
2024-02-14T06:28:53.466Z,6.77
2024-02-14T06:31:27.437Z,8.33
2024-02-14T06:34:01.496Z,8.87
2024-02-14T06:36:31.972Z,8.00
2024-02-14T06:39:06.853Z,10.60
2024-02-14T06:41:36.932Z,12.07
2024-02-14T06:44:12.443Z,10.20
2024-02-14T06:46:44.927Z,15.97
2024-02-14T06:49:15.039Z,13.47
2024-02-14T06:51:49.267Z,17.30
2024-02-14T06:54:20.874Z,19.63
2024-02-14T06:56:56.394Z,16.47
2024-02-14T06:59:28.911Z,24.07
2024-02-14T07:02:12.844Z,17.33
2024-02-14T07:04:44.070Z,24.40
2024-02-14T07:07:13.991Z,22.40
2024-02-14T07:09:45.483Z,20.67
2024-02-14T07:12:16.526Z,18.80
2024-02-14T07:14:50.792Z,19.87
2024-02-14T07:17:23.366Z,23.73
2024-02-14T07:19:56.265Z,21.70
2024-02-14T07:22:26.528Z,19.03
2024-02-14T07:24:58.503Z,22.43
2024-02-14T07:27:31.296Z,26.40
2024-02-14T07:30:01.579Z,22.77
2024-02-14T07:32:35.280Z,28.77
2024-02-14T07:35:07.418Z,28.37
2024-02-14T07:37:39.276Z,23.70
2024-02-14T07:40:16.101Z,29.73
2024-02-14T07:42:56.583Z,22.63
2024-02-14T07:48:12.935Z,22.67
2024-02-14T07:50:45.699Z,22.70
2024-02-14T07:53:15.729Z,24.70
2024-02-14T07:55:52.256Z,23.37
2024-02-14T07:58:27.373Z,24.77
2024-02-14T08:00:59.001Z,23.97
2024-02-14T08:03:45.592Z,26.67
2024-02-14T08:06:15.699Z,20.63
2024-02-14T08:08:50.482Z,26.50
2024-02-14T08:11:22.566Z,28.90
2024-02-14T08:14:04.267Z,29.00
2024-02-14T08:16:38.228Z,26.97
2024-02-14T08:19:11.090Z,23.73
2024-02-14T08:21:41.976Z,26.67
2024-02-14T08:24:12.045Z,24.60
2024-02-14T08:26:47.225Z,30.57
2024-02-14T08:29:18.541Z,28.40
2024-02-14T08:31:49.247Z,33.13
2024-02-14T08:34:24.861Z,34.47
2024-02-14T08:37:06.416Z,29.77
2024-02-14T08:39:36.399Z,31.00
2024-02-14T08:42:12.476Z,33.20
2024-02-14T08:44:47.670Z,28.13
2024-02-14T08:47:20.685Z,30.70
2024-02-14T08:49:59.679Z,26.87
2024-02-14T08:52:32.393Z,28.47
2024-02-14T08:55:02.354Z,29.20
2024-02-14T08:57:36.452Z,24.43
2024-02-14T09:00:12.389Z,27.73
2024-02-14T09:02:48.771Z,28.57
2024-02-14T09:05:29.221Z,28.30
2024-02-14T09:08:02.939Z,30.80
2024-02-14T09:10:32.962Z,19.93
2024-02-14T09:13:06.421Z,24.93
2024-02-14T09:15:36.377Z,24.33
2024-02-14T09:18:06.928Z,23.73
2024-02-14T09:20:42.978Z,26.77
2024-02-14T09:23:13.001Z,16.77
2024-02-14T09:25:46.989Z,26.00
2024-02-14T09:28:22.503Z,22.27
2024-02-14T09:30:57.510Z,23.60
2024-02-14T09:33:27.649Z,21.73
2024-02-14T09:36:03.302Z,23.37
2024-02-14T09:38:36.411Z,20.63
2024-02-14T09:41:20.702Z,19.03
2024-02-14T09:43:59.085Z,25.23
2024-02-14T09:46:32.734Z,21.33
2024-02-14T09:49:04.390Z,29.63
2024-02-14T09:51:37.297Z,23.30
2024-02-14T09:54:09.456Z,20.80
2024-02-14T09:56:52.070Z,24.63
2024-02-14T09:59:33.245Z,20.73
2024-02-14T10:02:05.468Z,21.70
2024-02-14T10:04:39.256Z,32.43
2024-02-14T10:07:12.625Z,25.03
2024-02-14T10:09:51.784Z,22.83
2024-02-14T10:12:21.867Z,23.23
2024-02-14T10:14:54.630Z,18.47
2024-02-14T10:17:27.505Z,25.70
2024-02-14T10:20:01.828Z,19.17
2024-02-14T10:22:41.383Z,21.87
2024-02-14T10:25:21.099Z,49.57
2024-02-14T10:27:51.759Z,23.50
2024-02-14T10:30:26.918Z,20.37
2024-02-14T10:33:10.388Z,19.57
2024-02-14T10:35:47.462Z,19.00
2024-02-14T10:38:21.615Z,25.77
2024-02-14T10:40:53.554Z,31.37
2024-02-14T10:43:23.526Z,18.50
2024-02-14T10:46:06.307Z,17.47
2024-02-14T10:48:47.493Z,17.03
2024-02-14T10:51:20.659Z,13.20
2024-02-14T10:53:57.480Z,16.73
2024-02-14T10:56:34.378Z,11.47
2024-02-14T10:59:06.352Z,11.23
2024-02-14T11:01:38.496Z,11.13
2024-02-14T11:04:11.357Z,10.73
2024-02-14T11:06:52.074Z,14.63
2024-02-14T11:09:26.506Z,10.73
2024-02-14T11:12:04.975Z,11.23
2024-02-14T11:14:40.117Z,13.20
2024-02-14T11:17:13.882Z,15.57
2024-02-14T11:19:47.596Z,16.03
2024-02-14T11:22:23.026Z,13.37
2024-02-14T11:24:56.978Z,16.57
2024-02-14T11:27:34.246Z,15.80
2024-02-14T11:30:08.589Z,14.77
2024-02-14T11:32:40.670Z,23.60
2024-02-14T11:35:15.098Z,15.00
2024-02-14T11:37:48.738Z,13.90
2024-02-14T11:40:26.523Z,18.40
2024-02-14T11:42:58.961Z,15.67
2024-02-14T11:45:31.993Z,18.87
2024-02-14T11:48:04.794Z,17.60
2024-02-14T11:50:37.678Z,17.27
2024-02-14T11:53:13.477Z,13.60
2024-02-14T11:55:48.108Z,15.90
2024-02-14T11:58:20.917Z,13.50
2024-02-14T12:00:54.535Z,14.17
2024-02-14T12:03:27.755Z,11.97
2024-02-14T12:06:19.296Z,12.23
2024-02-14T12:08:52.348Z,10.00
2024-02-14T12:11:29.022Z,7.90
2024-02-14T12:14:07.532Z,7.70
2024-02-14T12:16:38.806Z,6.83
2024-02-14T12:19:12.021Z,5.43
2024-02-14T12:21:46.580Z,6.23
2024-02-14T12:24:21.767Z,8.60
2024-02-14T12:26:59.221Z,5.97
2024-02-14T12:29:29.277Z,7.67
2024-02-14T12:32:11.621Z,7.77
2024-02-14T12:34:45.471Z,6.30
2024-02-14T12:37:18.908Z,6.37
2024-02-14T12:39:49.533Z,7.43
2024-02-14T12:42:27.799Z,7.70
2024-02-14T12:44:59.505Z,6.67
2024-02-14T12:47:33.434Z,6.87
2024-02-14T12:50:03.614Z,5.90
2024-02-14T12:52:33.615Z,6.30
2024-02-14T12:55:03.754Z,6.87
2024-02-14T12:57:41.049Z,7.43
2024-02-14T13:00:19.702Z,7.87
2024-02-14T13:03:00.947Z,9.63
2024-02-14T13:05:35.290Z,7.33
2024-02-14T13:08:07.663Z,8.60
2024-02-14T13:10:37.735Z,10.33
2024-02-14T13:13:10.325Z,7.87
2024-02-14T13:15:58.301Z,8.47
2024-02-14T13:18:28.490Z,11.33
2024-02-14T13:21:01.613Z,11.60
2024-02-14T13:23:34.400Z,8.53
2024-02-14T13:26:05.065Z,9.87
2024-02-14T13:28:44.812Z,9.47
2024-02-14T13:31:15.776Z,10.37
2024-02-14T13:33:49.137Z,9.40
2024-02-14T13:36:19.368Z,10.97
2024-02-14T13:38:52.663Z,7.87
2024-02-14T13:41:22.581Z,9.37
2024-02-14T13:43:55.131Z,10.40
2024-02-14T13:46:29.551Z,10.00
2024-02-14T13:48:59.587Z,11.33
2024-02-14T13:51:29.636Z,11.70
2024-02-14T13:54:05.040Z,12.03
2024-02-14T13:56:48.664Z,12.17
2024-02-14T13:59:22.041Z,15.43
2024-02-14T14:02:04.853Z,14.57
2024-02-14T14:04:41.316Z,12.97
2024-02-14T14:07:13.424Z,14.00
2024-02-14T14:09:53.931Z,15.63
2024-02-14T14:12:24.127Z,13.60
2024-02-14T14:15:03.009Z,13.67
2024-02-14T14:17:35.144Z,11.13
2024-02-14T14:20:05.326Z,13.13
2024-02-14T14:22:42.447Z,13.17
2024-02-14T14:25:13.010Z,14.27
2024-02-14T14:27:44.507Z,12.20
2024-02-14T14:30:19.697Z,9.67
2024-02-14T14:32:50.794Z,8.80
2024-02-14T14:35:21.259Z,9.40
2024-02-14T14:38:03.526Z,10.10
2024-02-14T14:40:35.694Z,8.13
2024-02-14T14:43:08.588Z,8.33
2024-02-14T14:45:42.499Z,8.67
2024-02-14T14:48:24.167Z,7.87
2024-02-14T14:51:06.046Z,7.10
2024-02-14T14:53:41.766Z,6.73
2024-02-14T14:56:11.812Z,5.97
2024-02-14T14:58:47.691Z,8.10
2024-02-14T15:01:27.284Z,6.70
2024-02-14T15:04:01.648Z,6.83
2024-02-14T15:06:31.996Z,6.20
2024-02-14T15:09:05.464Z,5.47
2024-02-14T15:11:35.422Z,5.37
2024-02-14T15:14:10.080Z,5.47
2024-02-14T15:19:28.459Z,4.03
2024-02-14T15:22:02.537Z,3.67
2024-02-14T15:24:38.601Z,3.80
2024-02-14T15:27:09.881Z,3.90
2024-02-14T15:29:58.608Z,4.03
2024-02-14T15:32:43.633Z,4.77
2024-02-14T15:35:23.716Z,4.17
2024-02-14T15:38:01.577Z,4.63
2024-02-14T15:40:34.157Z,6.53
2024-02-14T15:43:04.952Z,5.33
2024-02-14T15:45:35.769Z,4.67
2024-02-14T15:48:09.778Z,4.63
2024-02-14T15:50:40.305Z,5.03
2024-02-14T15:53:17.224Z,5.43
2024-02-14T15:55:49.333Z,4.83
2024-02-14T15:58:20.759Z,6.13
2024-02-14T16:00:53.767Z,6.20
2024-02-14T16:03:26.388Z,6.60
2024-02-14T16:06:00.746Z,9.37
2024-02-14T16:08:31.227Z,7.87
2024-02-14T16:11:01.206Z,8.07
2024-02-14T16:13:32.423Z,9.03
2024-02-14T16:16:02.406Z,10.27
2024-02-14T16:18:39.742Z,8.83
2024-02-14T16:21:15.215Z,8.17
2024-02-14T16:23:47.783Z,10.37
2024-02-14T16:26:19.468Z,9.80
2024-02-14T16:28:54.354Z,8.07
2024-02-14T16:31:28.661Z,8.13
2024-02-14T16:34:01.455Z,9.63
2024-02-14T16:36:48.706Z,11.10
2024-02-14T16:39:30.887Z,11.00
2024-02-14T16:42:10.593Z,10.67
2024-02-14T16:44:49.454Z,10.10
2024-02-14T16:47:19.649Z,10.83
2024-02-14T16:49:52.327Z,9.60
2024-02-14T16:52:22.846Z,12.03
2024-02-14T16:54:53.342Z,10.80
2024-02-14T16:57:24.699Z,12.63
2024-02-14T16:59:54.695Z,15.27
2024-02-14T17:02:30.535Z,12.20
2024-02-14T17:05:04.852Z,13.07
2024-02-14T17:07:35.122Z,11.80
2024-02-14T17:10:06.433Z,12.03
2024-02-14T17:12:40.706Z,11.30
2024-02-14T17:15:13.402Z,12.47
2024-02-14T17:17:47.532Z,10.67
2024-02-14T17:20:25.445Z,11.83
2024-02-14T17:22:56.552Z,10.80
2024-02-14T17:25:28.283Z,10.83
2024-02-14T17:27:58.237Z,12.20
2024-02-14T17:30:28.342Z,13.10
2024-02-14T17:33:06.505Z,14.27
2024-02-14T17:36:04.542Z,12.30
2024-02-14T17:38:37.745Z,12.83
2024-02-14T17:41:28.324Z,12.13
2024-02-14T17:44:08.885Z,12.77
2024-02-14T17:46:46.968Z,11.37
2024-02-14T17:49:24.371Z,12.07
2024-02-14T17:51:59.813Z,12.20
2024-02-14T17:54:36.672Z,10.93
2024-02-14T17:57:10.127Z,12.60
2024-02-14T17:59:40.791Z,12.60
2024-02-14T18:05:07.147Z,14.53
2024-02-14T18:07:40.526Z,12.10
2024-02-14T18:10:13.673Z,12.33
2024-02-14T18:12:44.053Z,11.93
2024-02-14T18:15:21.278Z,12.13
2024-02-14T18:17:54.482Z,13.50
2024-02-14T18:20:28.405Z,11.87
2024-02-14T18:23:00.901Z,12.67
2024-02-14T18:25:33.878Z,13.47
2024-02-14T18:30:54.172Z,15.00
2024-02-14T18:33:32.081Z,12.63
2024-02-14T18:36:05.421Z,13.67
2024-02-14T18:38:41.648Z,13.50
2024-02-14T18:41:34.592Z,11.70
2024-02-14T18:44:06.853Z,15.80
2024-02-14T18:46:39.882Z,16.63
2024-02-14T18:49:09.895Z,15.97
2024-02-14T18:51:42.550Z,17.83
2024-02-14T18:54:17.305Z,17.10
2024-02-14T18:56:48.957Z,17.50
2024-02-14T18:59:22.825Z,18.90
2024-02-14T19:01:56.173Z,20.27
2024-02-14T19:04:38.356Z,18.13
2024-02-14T19:07:09.349Z,16.93
2024-02-14T19:09:42.014Z,17.47
2024-02-14T19:12:14.571Z,16.67
2024-02-14T19:14:53.276Z,18.70
2024-02-14T19:17:26.668Z,16.73
2024-02-14T19:19:57.096Z,18.03
2024-02-14T19:22:32.244Z,17.37
2024-02-14T19:25:08.760Z,14.87
2024-02-14T19:27:41.538Z,14.13
2024-02-14T19:30:12.031Z,14.53
2024-02-14T19:32:45.187Z,13.10
2024-02-14T19:35:15.772Z,14.13
2024-02-14T19:37:52.029Z,15.03
2024-02-14T19:40:26.257Z,13.63
2024-02-14T19:42:59.268Z,16.60
2024-02-14T19:45:29.749Z,16.00
2024-02-14T19:48:01.497Z,16.23
2024-02-14T19:50:34.141Z,13.00
2024-02-14T19:53:13.603Z,14.93
2024-02-14T19:55:55.749Z,15.60
2024-02-14T19:58:25.963Z,13.93
2024-02-14T20:01:04.867Z,15.27
2024-02-14T20:03:42.075Z,16.07
2024-02-14T20:06:12.385Z,16.07
2024-02-14T20:08:51.416Z,17.37
2024-02-14T20:11:25.741Z,22.27
2024-02-14T20:13:59.046Z,20.97
2024-02-14T20:16:36.979Z,23.47
2024-02-14T20:19:10.062Z,27.17
2024-02-14T20:21:43.342Z,24.90
2024-02-14T20:24:13.453Z,25.97
2024-02-14T20:26:55.595Z,32.90
2024-02-14T20:29:25.489Z,31.80
2024-02-14T20:31:56.129Z,36.97
2024-02-14T20:34:28.774Z,39.73
2024-02-14T20:37:04.858Z,34.63
2024-02-14T20:39:41.803Z,45.87
2024-02-14T20:42:18.648Z,43.57
2024-02-14T20:44:48.829Z,39.63
2024-02-14T20:47:18.758Z,48.63
2024-02-14T20:49:50.010Z,42.10
2024-02-14T20:52:27.997Z,43.13
2024-02-14T20:55:04.096Z,44.60
2024-02-14T20:57:36.707Z,45.93
2024-02-14T21:00:13.151Z,41.27
2024-02-14T21:02:48.224Z,44.07
2024-02-14T21:05:20.269Z,42.00
2024-02-14T21:07:50.339Z,36.23
2024-02-14T21:10:33.627Z,37.73
2024-02-14T21:13:10.414Z,37.03
2024-02-14T21:15:46.804Z,33.63
2024-02-14T21:18:22.127Z,35.37
2024-02-14T21:20:53.378Z,33.30
2024-02-14T21:23:27.198Z,38.00
2024-02-14T21:25:57.377Z,35.67
2024-02-14T21:28:31.953Z,41.43
2024-02-14T21:31:08.101Z,33.23
2024-02-14T21:33:41.542Z,26.37
2024-02-14T21:36:17.853Z,29.77
2024-02-14T21:38:52.893Z,29.10
2024-02-14T21:41:25.272Z,27.63
2024-02-14T21:44:00.624Z,28.70
2024-02-14T21:46:35.088Z,33.27
2024-02-14T21:49:08.729Z,31.80
2024-02-14T21:51:41.061Z,27.87
2024-02-14T21:54:11.050Z,32.33
2024-02-14T21:56:57.983Z,31.03
2024-02-14T21:59:31.695Z,36.17
2024-02-14T22:02:11.874Z,32.83
2024-02-14T22:08:03.859Z,33.57
2024-02-14T22:10:35.071Z,33.00
2024-02-14T22:13:07.764Z,33.90
2024-02-14T22:15:40.948Z,27.70
2024-02-14T22:18:12.867Z,25.27
2024-02-14T22:20:45.152Z,24.83
2024-02-14T22:23:19.649Z,24.00
2024-02-14T22:29:19.959Z,29.60
2024-02-14T22:32:09.877Z,32.87
2024-02-14T22:34:42.706Z,31.07
2024-02-14T22:37:16.321Z,34.00
2024-02-14T22:39:49.872Z,37.00
2024-02-14T22:42:19.835Z,37.80
2024-02-14T22:45:09.681Z,42.03
2024-02-14T22:48:36.782Z,45.43
2024-02-14T22:51:48.984Z,49.50
2024-02-14T22:57:50.048Z,48.00
2024-02-14T23:00:27.477Z,54.57
2024-02-14T23:02:57.941Z,45.70
2024-02-14T23:05:28.673Z,51.40
2024-02-14T23:07:59.396Z,48.17
2024-02-14T23:10:34.137Z,49.57
2024-02-14T23:13:09.973Z,48.57
2024-02-14T23:15:42.182Z,49.93
2024-02-14T23:18:19.781Z,50.93
2024-02-14T23:20:54.083Z,53.20
2024-02-14T23:23:24.029Z,54.40
2024-02-14T23:26:00.750Z,44.63
2024-02-14T23:28:32.804Z,52.10
2024-02-14T23:31:04.389Z,53.40
2024-02-14T23:33:35.532Z,53.57
2024-02-14T23:36:11.815Z,53.47
2024-02-14T23:38:43.372Z,51.97
2024-02-14T23:41:22.074Z,53.53
2024-02-14T23:43:54.081Z,45.63
2024-02-14T23:46:26.288Z,50.07
2024-02-14T23:48:59.301Z,55.93
2024-02-14T23:51:36.311Z,61.77
2024-02-14T23:54:12.252Z,59.53
2024-02-14T23:57:11.119Z,56.97
2024-02-14T23:59:53.739Z,60.20
